WetterOnline ( https://www.wetteronline.de )

Wetter aktuell Warburg

Aktuelles Wetter: Warburg (237m)

6-stündlich | Neueste Meldungen
Ortszeit Temperatur Wetter
Mo, 03.10. 8:00 10.1° C bedeckt
Mo, 03.10. 2:00 10.2° C bewölkt
So, 02.10. 20:00 11.6° C wolkenlos
So, 02.10. 14:00 14.8° C wolkig
So, 02.10. 8:00 10.4° C Sprühregen
So, 02.10. 2:00 9.4° C wolkenlos
Sa, 01.10. 20:00 12.4° C wolkenlos
Sa, 01.10. 14:00 13.4° C bedeckt
Ortszeit Temperatur Wetter
Mo, 03.10. 9:30 10.7° C bedeckt
Mo, 03.10. 9:20 10.7° C bedeckt
Mo, 03.10. 9:10 10.5° C bedeckt
Mo, 03.10. 9:00 10.3° C bedeckt
Mo, 03.10. 8:50 10.3° C bedeckt
Mo, 03.10. 8:40 10.3° C bedeckt
Mo, 03.10. 8:30 10.2° C bedeckt
Mo, 03.10. 8:00 10.1° C bedeckt
Mo, 03.10. 7:30 10.0° C bedeckt
Mo, 03.10. 7:00 10.1° C bedeckt
Mo, 03.10. 6:30 10.3° C bedeckt
Ortszeit Relative Feuchte Sichtweite
Mo, 03.10. 8:00 95% 13 km
Mo, 03.10. 2:00 89% 30 km
So, 02.10. 20:00 78% 45 km
So, 02.10. 14:00 76% 35 km
So, 02.10. 8:00 95% 15 km
So, 02.10. 2:00 89% 30 km
Sa, 01.10. 20:00 82% 40 km
Sa, 01.10. 14:00 83% >70 km
Ortszeit Relative Feuchte Sichtweite
Mo, 03.10. 9:30 93% 15 km
Mo, 03.10. 9:20 93% -
Mo, 03.10. 9:10 95% -
Mo, 03.10. 9:00 95% 12 km
Mo, 03.10. 8:50 95% -
Mo, 03.10. 8:40 95% -
Mo, 03.10. 8:30 95% 12 km
Mo, 03.10. 8:00 95% 13 km
Mo, 03.10. 7:30 95% 14 km
Mo, 03.10. 7:00 94% 16 km
Mo, 03.10. 6:30 94% 16 km
Ortszeit Niederschlagsmenge Niederschlagsart
Mo, 03.10. 8:00 0.1 l/m2 in 12 Std. Regen
Mo, 03.10. 2:00 0.0 l/m2 in 6 Std. -
So, 02.10. 20:00 0.8 l/m2 in 12 Std. Regen
So, 02.10. 14:00 0.6 l/m2 in 6 Std. Regen
So, 02.10. 8:00 0.3 l/m2 in 12 Std. Regen
So, 02.10. 2:00 0.1 l/m2 in 6 Std. Regen
Sa, 01.10. 20:00 5 l/m2 in 12 Std. Regen
Sa, 01.10. 14:00 2 l/m2 in 6 Std. Regen
Ortszeit Niederschlagsmenge Niederschlagsart
Mo, 03.10. 9:30 0.0 l/m2 in 1 Std. -
Mo, 03.10. 9:20 keine Meldung -
Mo, 03.10. 9:10 keine Meldung -
Mo, 03.10. 9:00 <0.05 l/m2 in 1 Std. Sprühregen
Mo, 03.10. 8:50 keine Meldung -
Mo, 03.10. 8:40 keine Meldung -
Mo, 03.10. 8:30 <0.05 l/m2 in 1 Std. Schnee
Mo, 03.10. 8:00 0.0 l/m2 in 1 Std. Regen
Mo, 03.10. 7:30 0.0 l/m2 in 1 Std. -
Mo, 03.10. 7:00 0.0 l/m2 in 1 Std. -
Mo, 03.10. 6:30 0.0 l/m2 in 1 Std. -
Ortszeit Stärke Spitze Richtung
km/h Bft. km/h Grad Sektor
Mo, 03.10. 8:00 13 3 26 290° W
Mo, 03.10. 2:00 11 2 18 290° W
So, 02.10. 20:00 11 2 39 300° NW
So, 02.10. 14:00 13 3 28 280° W
So, 02.10. 8:00 9 2 22 200° S
So, 02.10. 2:00 4 1 32 180° S
Sa, 01.10. 20:00 11 2 47 240° SW
Sa, 01.10. 14:00 14 3 47 210° SW
Ortszeit Stärke Spitze Richtung
km/h Bft. km/h Grad Sektor
Mo, 03.10. 9:30 13 3 19 290° W
Mo, 03.10. 9:20 13 3 - 290° W
Mo, 03.10. 9:10 13 3 - 290° W
Mo, 03.10. 9:00 14 3 22 290° W
Mo, 03.10. 8:50 14 3 - 290° W
Mo, 03.10. 8:40 14 3 - 290° W
Mo, 03.10. 8:30 15 3 20 290° W
Mo, 03.10. 8:00 13 3 22 290° W
Mo, 03.10. 7:30 13 3 22 290° W
Mo, 03.10. 7:00 19 3 26 290° W
Mo, 03.10. 6:30 13 3 22 320° NW
Ortszeit Untergrenze Bedeckung Gattung
total tief tief mittel hoch
Mo, 03.10. 8:00 180 m 8/8 8/8 - - -
Mo, 03.10. 2:00 1200 m 7/8 7/8 - - -
So, 02.10. 20:00 - 0/8 0/8 - - -
So, 02.10. 14:00 1080 m 7/8 2/8 - - -
So, 02.10. 8:00 570 m 7/8 7/8 - - -
So, 02.10. 2:00 - 0/8 0/8 - - -
Sa, 01.10. 20:00 - 0/8 0/8 - - -
Sa, 01.10. 14:00 630 m 8/8 8/8 - - -
Ortszeit Bedeckungsgrad in Achtel und Wolkenuntergrenze
Mo, 03.10. 9:30 7(210m) 8(1290m)
Mo, 03.10. 9:20 7(210m) 8(1290m)
Mo, 03.10. 9:10 8
Mo, 03.10. 9:00 8(180m) 8(1320m)
Mo, 03.10. 8:50 8(180m) 8(1320m)
Mo, 03.10. 8:40 8
Mo, 03.10. 8:30 7(180m) 7(1020m) 8(1290m)
Mo, 03.10. 8:00 5(180m) 8(1290m)
Mo, 03.10. 7:30 4(210m) 8(1290m)
Mo, 03.10. 7:00 5(210m) 8(1260m)
Mo, 03.10. 6:30 8(210m)
Ortszeit Luftdruck NN (hPa) Tendenz (hPa in 3 Std.)
Mo, 03.10. 8:00 1026 + 0,8
Mo, 03.10. 2:00 1024 + 1,5
So, 02.10. 20:00 1020 + 2,3
So, 02.10. 14:00 1016 + 0,4
So, 02.10. 8:00 1015 + 0,1
So, 02.10. 2:00 1015 + 1,6
Sa, 01.10. 20:00 1010 + 2,7
Sa, 01.10. 14:00 1005 + 1,1
Ortszeit Luftdruck NN (hPa) Tendenz (hPa in 3 Std.)
Mo, 03.10. 9:30 1027 + 1,0
Mo, 03.10. 9:20 1027 keine Meldung
Mo, 03.10. 9:10 1026 keine Meldung
Mo, 03.10. 9:00 1026 + 0,9
Mo, 03.10. 8:50 1026 keine Meldung
Mo, 03.10. 8:40 1026 keine Meldung
Mo, 03.10. 8:30 1026 + 0,8
Mo, 03.10. 8:00 1026 + 0,8
Mo, 03.10. 7:30 1026 + 0,8
Mo, 03.10. 7:00 1026 + 0,8
Mo, 03.10. 6:30 1026 + 1,0
Ortszeit Schneehöhe (cm)
Mo, 03.10. 8:00 0
Mo, 03.10. 2:00 0
So, 02.10. 20:00 0
So, 02.10. 14:00 0
So, 02.10. 8:00 0
So, 02.10. 2:00 0
Sa, 01.10. 20:00 0
Sa, 01.10. 14:00 0
Ortszeit Schneehöhe (cm)
Mo, 03.10. 9:30 0
Mo, 03.10. 9:20 0
Mo, 03.10. 9:10 0
Mo, 03.10. 9:00 0
Mo, 03.10. 8:50 0
Mo, 03.10. 8:40 0
Mo, 03.10. 8:30 0
Mo, 03.10. 8:00 0
Mo, 03.10. 7:30 0
Mo, 03.10. 7:00 0
Mo, 03.10. 6:30 0
Link zu dieser Seite / Seite empfehlen

Das Wetter in ...